PWSweather.com
Personal Weather Stations
Station Observations
01979
Ravne Pri CerknemSI 5282

Ravne Pri CerknemSI 5282

Lat: 46.1213916, Lon: 13.952774299999987

Elevation: 2244.094488

Station Type: Techo Line WS2307

Latest ConditionsUpdated 10:50:30 AM GMT+01:01 Thursday, Jul 18, 2019
Currently Today's Max Today's Min Today's Average
Temperature 74.1°F23.4°C 74.1°F23.4°C 56.5°F13.6°C 61.4°F16.3°C
Dew Point 63.3°F17.4°C 63.3°F17.4°C 54.0°F12.2°C 57.4°F14.1°C
Winds 1.9 mph S3.1 kmh S 6.9 mph -11.1 kmh - - 1.0 mph 1.6 kmh
Wind Gusts 5.4 mph8.7 kmh 9.8 mph15.8 kmh - -
Humidity 69% 96% 67% 87%
Pressure 30.04 in1017.3 mb 30.07 in1018.3 mb 30.03 in1016.9 mb -
Precipitation - 0.10 in2.5 mm - -
Hour Temp Dew Point Humidity Winds Wind Gusts Pressure Precip Precip Rate Daily Precip Total
10:50 AM 74.1°F23.4°C 63.3°F17.4°C 69% 1.9 mph S3.1 kmh S 5.4 mph8.7 kmh 30.04 in1017.3 mb 0.00 in0.0 mm 0.00 in0.0 mm 0.10 in2.5 mm
10:40 AM 74.1°F23.4°C 62.9°F17.2°C 68% Calm Calm -- 30.04 in1017.3 mb 0.00 in0.0 mm 0.00 in0.0 mm 0.10 in2.5 mm
10:30 AM 73.4°F23.0°C 61.8°F16.6°C 67% Calm Calm -- 30.04 in1017.3 mb 0.00 in0.0 mm 0.00 in0.0 mm 0.10 in2.5 mm
10:20 AM 72.5°F22.5°C 61.7°F16.5°C 69% 2.3 mph SSE3.7 kmh SSE 5.1 mph8.2 kmh 30.04 in1017.3 mb 0.00 in0.0 mm 0.00 in0.0 mm 0.10 in2.5 mm
10:10 AM 72.1°F22.3°C 61.8°F16.6°C 70% 0.6 mph SSE1.0 kmh SSE 2.7 mph4.3 kmh 30.04 in1017.3 mb 0.00 in0.0 mm 0.00 in0.0 mm 0.10 in2.5 mm
10:00 AM 71.2°F21.8°C 62.1°F16.7°C 73% 2.1 mph S3.4 kmh S 3.8 mph6.1 kmh 30.04 in1017.3 mb 0.00 in0.0 mm 0.00 in0.0 mm 0.10 in2.5 mm
09:50 AM 71.4°F21.9°C 62.7°F17.1°C 74% 2.3 mph SSE3.7 kmh SSE 5.1 mph8.2 kmh 30.04 in1017.3 mb 0.00 in0.0 mm 0.00 in0.0 mm 0.10 in2.5 mm
09:40 AM 70.0°F21.1°C 62.4°F16.9°C 77% 0.4 mph E0.6 kmh E 1.8 mph2.9 kmh 30.04 in1017.3 mb 0.00 in0.0 mm 0.00 in0.0 mm 0.10 in2.5 mm
09:30 AM 68.7°F20.4°C 61.9°F16.6°C 79% 1.5 mph S2.4 kmh S 4.7 mph7.6 kmh 30.04 in1017.3 mb 0.00 in0.0 mm 0.00 in0.0 mm 0.10 in2.5 mm
09:20 AM 68.5°F20.3°C 61.8°F16.6°C 79% 0.8 mph SSE1.3 kmh SSE 3.8 mph6.1 kmh 30.04 in1017.3 mb 0.00 in0.0 mm 0.00 in0.0 mm 0.10 in2.5 mm
09:10 AM 67.8°F19.9°C 60.7°F15.9°C 78% 3.3 mph S5.3 kmh S 5.1 mph8.2 kmh 30.04 in1017.3 mb 0.00 in0.0 mm 0.00 in0.0 mm 0.10 in2.5 mm
09:00 AM 67.3°F19.6°C 61.2°F16.2°C 81% 2.7 mph SSE4.3 kmh SSE 3.4 mph5.5 kmh 30.04 in1017.3 mb 0.00 in0.0 mm 0.00 in0.0 mm 0.10 in2.5 mm
08:50 AM 66.7°F19.3°C 61.4°F16.3°C 83% 3.6 mph S5.8 kmh S 5.1 mph8.2 kmh 30.04 in1017.3 mb 0.00 in0.0 mm 0.00 in0.0 mm 0.10 in2.5 mm
08:40 AM 66.7°F19.3°C 61.7°F16.5°C 84% 2.9 mph S4.7 kmh S 5.1 mph8.2 kmh 30.04 in1017.3 mb 0.00 in0.0 mm 0.00 in0.0 mm 0.10 in2.5 mm
08:30 AM 65.8°F18.8°C 61.2°F16.2°C 85% 1.9 mph S3.1 kmh S 3.4 mph5.5 kmh 30.04 in1017.3 mb 0.00 in0.0 mm 0.00 in0.0 mm 0.10 in2.5 mm
08:20 AM 65.5°F18.6°C 61.2°F16.2°C 86% 0.5 mph SSE0.8 kmh SSE 2.5 mph4.0 kmh 30.03 in1016.9 mb 0.00 in0.0 mm 0.00 in0.0 mm 0.10 in2.5 mm
08:10 AM 65.7°F18.7°C 62.0°F16.7°C 88% Calm Calm -- 30.03 in1016.9 mb 0.00 in0.0 mm 0.00 in0.0 mm 0.10 in2.5 mm
08:00 AM 64.9°F18.3°C 61.6°F16.4°C 89% Calm Calm -- 30.04 in1017.3 mb 0.00 in0.0 mm 0.00 in0.0 mm 0.10 in2.5 mm
07:50 AM 62.6°F17.0°C 59.6°F15.3°C 90% Calm Calm -- 30.04 in1017.3 mb 0.00 in0.0 mm 0.00 in0.0 mm 0.10 in2.5 mm
07:40 AM 63.5°F17.5°C 61.1°F16.2°C 92% Calm Calm -- 30.04 in1017.3 mb 0.00 in0.0 mm 0.00 in0.0 mm 0.10 in2.5 mm
07:30 AM 62.1°F16.7°C 60.3°F15.7°C 94% Calm Calm -- 30.03 in1016.9 mb 0.00 in0.0 mm 0.00 in0.0 mm 0.10 in2.5 mm
07:20 AM 62.1°F16.7°C 60.9°F16.1°C 96% Calm Calm -- 30.04 in1017.3 mb 0.00 in0.0 mm 0.00 in0.0 mm 0.10 in2.5 mm
07:10 AM 61.2°F16.2°C 60.0°F15.6°C 96% Calm Calm -- 30.03 in1016.9 mb 0.00 in0.0 mm 0.00 in0.0 mm 0.10 in2.5 mm
07:00 AM 59.9°F15.5°C 58.8°F14.9°C 96% Calm Calm -- 30.04 in1017.3 mb 0.00 in0.0 mm 0.00 in0.0 mm 0.10 in2.5 mm
06:50 AM 58.8°F14.9°C 57.7°F14.3°C 96% Calm Calm -- 30.03 in1016.9 mb 0.00 in0.0 mm 0.00 in0.0 mm 0.10 in2.5 mm
06:40 AM 57.7°F14.3°C 56.3°F13.5°C 95% Calm Calm -- 30.03 in1016.9 mb 0.00 in0.0 mm 0.00 in0.0 mm 0.10 in2.5 mm
06:30 AM 57.4°F14.1°C 56.0°F13.3°C 95% Calm Calm -- 30.03 in1016.9 mb 0.00 in0.0 mm 0.00 in0.0 mm 0.10 in2.5 mm
06:20 AM 57.6°F14.2°C 56.1°F13.4°C 95% Calm Calm -- 30.03 in1016.9 mb 0.00 in0.0 mm 0.00 in0.0 mm 0.10 in2.5 mm
06:10 AM 57.2°F14.0°C 55.8°F13.2°C 95% Calm Calm -- 30.03 in1016.9 mb 0.00 in0.0 mm 0.00 in0.0 mm 0.10 in2.5 mm
06:00 AM 57.0°F13.9°C 55.6°F13.1°C 95% Calm Calm -- 30.03 in1016.9 mb 0.00 in0.0 mm 0.00 in0.0 mm 0.10 in2.5 mm
05:50 AM 57.0°F13.9°C 55.6°F13.1°C 95% Calm Calm -- 30.03 in1016.9 mb 0.00 in0.0 mm 0.00 in0.0 mm 0.10 in2.5 mm
05:40 AM 56.8°F13.8°C 55.4°F13.0°C 95% Calm Calm -- 30.03 in1016.9 mb 0.00 in0.0 mm 0.00 in0.0 mm 0.10 in2.5 mm
05:30 AM 56.7°F13.7°C 55.2°F12.9°C 95% Calm Calm -- 30.03 in1016.9 mb 0.00 in0.0 mm 0.00 in0.0 mm 0.10 in2.5 mm
05:20 AM 56.5°F13.6°C 54.8°F12.7°C 94% Calm Calm -- 30.03 in1016.9 mb 0.00 in0.0 mm 0.00 in0.0 mm 0.10 in2.5 mm
05:10 AM 56.5°F13.6°C 54.8°F12.7°C 94% Calm Calm -- 30.04 in1017.3 mb 0.00 in0.0 mm 0.00 in0.0 mm 0.10 in2.5 mm
05:00 AM 56.5°F13.6°C 54.8°F12.7°C 94% Calm Calm -- 30.04 in1017.3 mb 0.00 in0.0 mm 0.00 in0.0 mm 0.10 in2.5 mm
04:50 AM 56.5°F13.6°C 54.8°F12.7°C 94% Calm Calm -- 30.03 in1016.9 mb 0.00 in0.0 mm 0.00 in0.0 mm 0.10 in2.5 mm
04:40 AM 56.5°F13.6°C 54.8°F12.7°C 94% Calm Calm -- 30.04 in1017.3 mb 0.00 in0.0 mm 0.00 in0.0 mm 0.10 in2.5 mm
04:30 AM 56.7°F13.7°C 55.0°F12.8°C 94% 0.4 mph SE0.6 kmh SE 2.0 mph3.2 kmh 30.04 in1017.3 mb 0.00 in0.0 mm 0.00 in0.0 mm 0.10 in2.5 mm
04:20 AM 56.8°F13.8°C 55.1°F12.8°C 94% 0.1 mph SE0.2 kmh SE 2.0 mph3.2 kmh 30.03 in1016.9 mb 0.00 in0.0 mm 0.00 in0.0 mm 0.10 in2.5 mm
04:10 AM 56.8°F13.8°C 55.1°F12.8°C 94% Calm Calm -- 30.03 in1016.9 mb 0.00 in0.0 mm 0.00 in0.0 mm 0.10 in2.5 mm
04:00 AM 57.0°F13.9°C 55.3°F12.9°C 94% Calm Calm -- 30.04 in1017.3 mb 0.04 in1.0 mm 0.00 in0.0 mm 0.10 in2.5 mm
03:50 AM 56.8°F13.8°C 55.1°F12.8°C 94% Calm Calm -- 30.03 in1016.9 mb 0.04 in1.0 mm 0.00 in0.0 mm 0.10 in2.5 mm
03:40 AM 56.8°F13.8°C 55.1°F12.8°C 94% Calm Calm -- 30.03 in1016.9 mb 0.04 in1.0 mm 0.00 in0.0 mm 0.10 in2.5 mm
03:30 AM 57.0°F13.9°C 55.0°F12.8°C 93% Calm Calm -- 30.04 in1017.3 mb 0.04 in1.0 mm 0.00 in0.0 mm 0.10 in2.5 mm
03:20 AM 57.0°F13.9°C 55.0°F12.8°C 93% Calm Calm -- 30.04 in1017.3 mb 0.04 in1.0 mm 0.00 in0.0 mm 0.10 in2.5 mm
03:10 AM 57.0°F13.9°C 55.0°F12.8°C 93% Calm Calm -- 30.04 in1017.3 mb 0.06 in1.5 mm 0.30 in7.6 mm 0.10 in2.5 mm
03:02 AM 57.4°F14.1°C 55.4°F13.0°C 93% Calm Calm -- 30.05 in1017.6 mb 0.02 in0.5 mm 0.00 in0.0 mm 0.06 in1.5 mm
03:00 AM 57.2°F14.0°C 55.2°F12.9°C 93% Calm Calm -- 30.05 in1017.6 mb 0.04 in1.0 mm 0.00 in0.0 mm 0.06 in1.5 mm
02:50 AM 57.2°F14.0°C 55.2°F12.9°C 93% Calm Calm -- 30.05 in1017.6 mb 0.04 in1.0 mm 0.00 in0.0 mm 0.06 in1.5 mm
02:40 AM 57.2°F14.0°C 55.2°F12.9°C 93% Calm Calm -- 30.06 in1017.9 mb 0.04 in1.0 mm 0.00 in0.0 mm 0.06 in1.5 mm
02:30 AM 57.4°F14.1°C 55.4°F13.0°C 93% 0.8 mph WNW1.3 kmh WNW 3.8 mph6.1 kmh 30.07 in1018.3 mb 0.04 in1.0 mm 0.00 in0.0 mm 0.06 in1.5 mm
02:20 AM 57.4°F14.1°C 55.1°F12.8°C 92% 1.0 mph WNW1.6 kmh WNW 4.5 mph7.2 kmh 30.06 in1017.9 mb 0.04 in1.0 mm 0.12 in3.0 mm 0.06 in1.5 mm
02:10 AM 57.6°F14.2°C 55.0°F12.8°C 91% Calm Calm -- 30.05 in1017.6 mb 0.02 in0.5 mm 0.13 in3.3 mm 0.04 in1.0 mm
02:01 AM 58.6°F14.8°C 54.1°F12.3°C 85% 0.9 mph 1.4 kmh -- 30.04 in1017.3 mb 0.00 in0.0 mm 0.00 in0.0 mm 0.02 in0.5 mm
02:00 AM 57.7°F14.3°C 55.1°F12.8°C 91% 0.8 mph SW1.3 kmh SW 3.8 mph6.1 kmh 30.05 in1017.6 mb 0.02 in0.5 mm 0.02 in0.5 mm 0.04 in1.0 mm
01:50 AM 57.9°F14.4°C 55.3°F12.9°C 91% 1.6 mph NW2.6 kmh NW 3.8 mph6.1 kmh 30.05 in1017.6 mb 0.00 in0.0 mm 0.00 in0.0 mm 0.02 in0.5 mm
01:40 AM 58.5°F14.7°C 54.9°F12.7°C 88% 1.0 mph SSE1.6 kmh SSE 3.8 mph6.1 kmh 30.05 in1017.6 mb 0.00 in0.0 mm 0.00 in0.0 mm 0.02 in0.5 mm
01:30 AM 58.8°F14.9°C 54.0°F12.2°C 84% 1.7 mph SE2.7 kmh SE 4.7 mph7.6 kmh 30.04 in1017.3 mb 0.02 in0.5 mm 0.00 in0.0 mm 0.02 in0.5 mm
01:20 AM 59.9°F15.5°C 54.4°F12.4°C 82% 2.6 mph ESE4.2 kmh ESE 4.7 mph7.6 kmh 30.05 in1017.6 mb 0.02 in0.5 mm 0.00 in0.0 mm 0.02 in0.5 mm
01:10 AM 60.1°F15.6°C 54.6°F12.6°C 82% 4.9 mph SE7.9 kmh SE 9.8 mph15.8 kmh 30.05 in1017.6 mb 0.02 in0.5 mm 0.00 in0.0 mm 0.02 in0.5 mm
01:00 AM 60.4°F15.8°C 54.6°F12.6°C 81% 6.8 mph SE10.9 kmh SE 9.8 mph15.8 kmh 30.05 in1017.6 mb 0.02 in0.5 mm 0.00 in0.0 mm 0.02 in0.5 mm
12:50 AM 61.0°F16.1°C 55.1°F12.8°C 81% 6.9 mph E11.1 kmh E 9.2 mph14.8 kmh 30.05 in1017.6 mb 0.02 in0.5 mm 0.00 in0.0 mm 0.02 in0.5 mm
12:40 AM 61.9°F16.6°C 55.6°F13.1°C 80% 5.5 mph ESE8.9 kmh ESE 8.7 mph14.0 kmh 30.05 in1017.6 mb 0.02 in0.5 mm 0.12 in3.0 mm 0.02 in0.5 mm
12:30 AM 62.8°F17.1°C 55.5°F13.1°C 77% 5.8 mph NE9.3 kmh NE 7.4 mph11.9 kmh 30.05 in1017.6 mb 0.00 in0.0 mm 0.00 in0.0 mm 0.00 in0.0 mm
12:20 AM 61.9°F16.6°C 56.0°F13.3°C 81% 3.7 mph N6.0 kmh N 7.4 mph11.9 kmh 30.06 in1017.9 mb 0.00 in0.0 mm 0.00 in0.0 mm 0.00 in0.0 mm
12:10 AM 62.8°F17.1°C 55.8°F13.2°C 78% Calm Calm -- 30.05 in1017.6 mb 0.00 in0.0 mm 0.00 in0.0 mm 0.00 in0.0 mm
12:00 AM 63.7°F17.6°C 56.0°F13.3°C 76% Calm Calm -- 30.04 in1017.3 mb 0.00 in0.0 mm 0.00 in0.0 mm 0.00 in0.0 mm